Time;durP1;ratioP1;P1;durP2;ratioP2;P2;SDS_P1;SDS_P2;PMS_P1;PMS_P2;Temp;Humidity;BMP_temperature;BMP_pressure;BME280_temperature;BME280_humidity;BME280_pressure;Samples;Min_cycle;Max_cycle;Signal;HPM_P1;HPM_P2
2023/06/09 00:00:11;;;;;;;4.10;1.60;;;;;;;20.24;41.28;99574.30;82083;1295;3018224;-63
2023/06/09 00:02:40;;;;;;;5.00;1.90;;;;;;;20.24;41.38;99578.23;81504;1294;3011224;-66
2023/06/09 00:05:07;;;;;;;4.70;1.70;;;;;;;20.24;41.34;99574.45;82061;1295;3012905;-64
2023/06/09 00:07:35;;;;;;;3.60;1.60;;;;;;;20.25;41.10;99575.61;82053;1295;3011379;-64
2023/06/09 00:10:04;;;;;;;4.50;1.80;;;;;;;20.25;41.22;99575.21;80789;1295;3051515;-63
2023/06/09 00:12:32;;;;;;;7.20;1.30;;;;;;;20.25;41.34;99570.33;82043;1297;3011388;-64
2023/06/09 00:14:59;;;;;;;3.50;1.80;;;;;;;20.24;41.22;99574.33;82109;1295;3011315;-64
2023/06/09 00:17:27;;;;;;;3.80;1.70;;;;;;;20.23;41.26;99570.83;80812;1294;3056133;-64
2023/06/09 00:19:54;;;;;;;4.00;1.90;;;;;;;20.21;41.45;99573.56;82045;1294;3018795;-64
2023/06/09 00:22:21;;;;;;;5.30;1.70;;;;;;;20.19;41.49;99574.13;82006;1295;3011322;-64
2023/06/09 00:24:49;;;;;;;5.40;1.90;;;;;;;20.15;41.63;99570.41;80849;1298;3053341;-64
2023/06/09 00:27:16;;;;;;;4.60;1.90;;;;;;;20.12;41.64;99575.36;82115;1295;3018230;-63
2023/06/09 00:29:43;;;;;;;5.10;1.90;;;;;;;20.10;41.69;99575.14;82028;1295;3011728;-64
2023/06/09 00:32:11;;;;;;;2.80;1.60;;;;;;;20.06;41.86;99568.97;80768;1295;3026286;-64
2023/06/09 00:34:38;;;;;;;5.50;1.90;;;;;;;20.00;42.06;99569.56;82028;1295;3012666;-64
2023/06/09 00:37:05;;;;;;;5.10;1.80;;;;;;;19.94;42.00;99568.33;82064;1298;3011234;-64
2023/06/09 00:39:33;;;;;;;3.40;2.00;;;;;;;19.94;42.29;99564.85;80749;1298;3026490;-64
2023/06/09 00:41:59;;;;;;;11.50;2.10;;;;;;;19.91;42.46;99562.24;82043;1295;3012824;-64
2023/06/09 00:44:26;;;;;;;5.30;2.20;;;;;;;19.91;42.32;99564.02;82035;1294;3011381;-63
2023/06/09 00:46:54;;;;;;;3.80;1.90;;;;;;;19.91;42.23;99558.52;80728;1295;3027421;-64
2023/06/09 00:49:21;;;;;;;4.40;2.50;;;;;;;19.89;42.47;99560.52;82074;1295;3012668;-64
2023/06/09 00:51:48;;;;;;;5.20;2.70;;;;;;;19.84;42.62;99559.91;82028;1295;3011379;-63
2023/06/09 00:54:17;;;;;;;8.00;3.60;;;;;;;19.81;42.47;99561.48;80828;1298;3051856;-66
2023/06/09 00:56:46;;;;;;;6.00;3.30;;;;;;;19.76;42.99;99559.80;82066;1294;3011373;-64
2023/06/09 00:59:15;;;;;;;5.10;2.60;;;;;;;19.73;42.86;99561.70;81527;1295;3011513;-64
2023/06/09 01:01:44;;;;;;;6.90;2.60;;;;;;;19.69;43.01;99558.70;81988;1294;3013083;-63
2023/06/09 01:04:12;;;;;;;5.70;3.10;;;;;;;19.68;43.28;99559.52;82026;1295;3011035;-64
2023/06/09 01:06:56;;;;;;;3.90;2.50;;;;;;;19.64;43.80;99559.71;80789;1295;3053059;-64
2023/06/09 01:09:34;;;;;;;6.30;2.10;;;;;;;19.64;43.78;99556.70;80743;1295;3050443;-63
2023/06/09 01:12:11;;;;;;;3.30;2.00;;;;;;;19.62;44.15;99556.98;80730;1299;3052259;-63
2023/06/09 01:14:44;;;;;;;5.20;2.00;;;;;;;19.64;44.38;99555.63;80805;1295;3053857;-63
2023/06/09 01:17:13;;;;;;;5.20;2.50;;;;;;;19.65;44.64;99557.16;81979;1298;3011078;-64
2023/06/09 01:19:43;;;;;;;4.50;2.30;;;;;;;19.64;44.61;99559.54;80673;1295;3051435;-63
2023/06/09 01:22:36;;;;;;;4.10;2.60;;;;;;;19.65;45.04;99558.35;82037;1298;3013044;-63
2023/06/09 01:25:41;;;;;;;7.90;2.30;;;;;;;19.63;45.00;99555.70;80726;1294;3049532;-64
2023/06/09 01:28:20;;;;;;;7.00;2.20;;;;;;;19.66;45.39;99560.04;80763;1296;3054729;-64
2023/06/09 01:30:49;;;;;;;6.50;2.40;;;;;;;19.66;45.16;99557.89;80707;1295;3049472;-64
2023/06/09 01:33:17;;;;;;;4.20;2.40;;;;;;;19.64;45.31;99554.91;82009;1300;3018005;-64
2023/06/09 01:35:44;;;;;;;8.50;2.30;;;;;;;19.61;45.73;99551.64;82021;1298;3011619;-64
2023/06/09 01:38:13;;;;;;;4.50;2.40;;;;;;;19.58;45.60;99552.14;80611;1295;3051144;-64
2023/06/09 01:40:40;;;;;;;7.60;3.00;;;;;;;19.55;45.69;99555.41;79855;1295;5887668;-64
2023/06/09 01:43:07;;;;;;;9.80;2.40;;;;;;;19.55;45.57;99553.30;81986;1294;3011618;-64
2023/06/09 01:45:35;;;;;;;7.80;3.50;;;;;;;19.54;45.25;99549.83;80811;1295;3049000;-65
2023/06/09 01:48:22;;;;;;;6.80;2.60;;;;;;;19.53;45.77;99554.77;82038;1295;3013179;-64
2023/06/09 01:50:53;;;;;;;4.90;2.80;;;;;;;19.54;45.45;99550.39;80714;1296;3068892;-63
2023/06/09 01:53:24;;;;;;;7.60;3.00;;;;;;;19.55;45.65;99552.60;82090;1294;3011227;-64
2023/06/09 01:55:58;;;;;;;8.10;3.50;;;;;;;19.56;45.53;99557.80;80648;1295;3055877;-63
2023/06/09 01:58:33;;;;;;;6.30;2.90;;;;;;;19.56;45.83;99555.17;81461;1294;3010925;-65
2023/06/09 02:01:00;;;;;;;10.60;3.40;;;;;;;19.54;45.40;99558.15;82026;1295;3011293;-63
2023/06/09 02:03:29;;;;;;;7.80;3.50;;;;;;;19.54;45.51;99554.26;80752;1295;3052771;-62
2023/06/09 02:05:55;;;;;;;8.70;3.90;;;;;;;19.54;45.54;99555.39;81862;1301;3018796;-63
2023/06/09 02:08:22;;;;;;;9.60;4.10;;;;;;;19.53;45.50;99558.48;82037;1295;3011175;-63
2023/06/09 02:10:49;;;;;;;12.70;3.90;;;;;;;19.51;45.45;99551.04;80795;1295;3025717;-64
2023/06/09 02:13:18;;;;;;;9.20;3.50;;;;;;;19.51;45.84;99549.23;82078;1294;3012549;-64
2023/06/09 02:15:45;;;;;;;7.00;3.50;;;;;;;19.54;45.72;99551.79;81985;1295;3011168;-64
2023/06/09 02:18:15;;;;;;;7.30;2.80;;;;;;;19.58;46.03;99552.77;80756;1296;3053321;-63
2023/06/09 02:20:42;;;;;;;9.20;3.60;;;;;;;19.65;45.68;99550.05;82082;1295;3011305;-64
2023/06/09 02:23:10;;;;;;;8.10;3.10;;;;;;;19.68;45.80;99550.39;82067;1298;3011143;-63
2023/06/09 02:25:40;;;;;;;10.60;2.90;;;;;;;19.69;45.54;99549.14;80709;1294;3068818;-63
2023/06/09 02:28:08;;;;;;;7.50;3.40;;;;;;;19.73;45.44;99548.04;82056;1295;3011253;-63
2023/06/09 02:30:35;;;;;;;6.00;3.10;;;;;;;19.74;45.99;99549.27;82013;1295;3011130;-64
2023/06/09 02:33:03;;;;;;;6.90;3.30;;;;;;;19.73;46.39;99549.05;80721;1296;3052542;-64
2023/06/09 02:35:30;;;;;;;8.60;3.40;;;;;;;19.74;46.47;99552.90;82029;1295;3013046;-64
2023/06/09 02:38:00;;;;;;;6.80;3.20;;;;;;;19.74;46.74;99554.64;82003;1295;3011525;-63
2023/06/09 02:40:29;;;;;;;8.80;2.90;;;;;;;19.77;46.41;99554.19;80767;1295;3069093;-63
2023/06/09 02:42:56;;;;;;;10.10;3.50;;;;;;;19.85;46.51;99558.77;82017;1295;3011306;-63
2023/06/09 02:45:23;;;;;;;7.30;3.00;;;;;;;19.90;46.75;99560.61;82058;1295;3011338;-64
2023/06/09 02:47:53;;;;;;;6.90;3.00;;;;;;;19.92;46.79;99556.66;80681;1295;3053248;-64
2023/06/09 02:50:20;;;;;;;6.80;3.60;;;;;;;19.95;47.06;99558.45;82062;1295;3011235;-64
2023/06/09 02:52:48;;;;;;;13.10;2.70;;;;;;;19.98;47.21;99559.80;81996;1301;3011333;-63
2023/06/09 02:55:18;;;;;;;8.40;3.50;;;;;;;20.02;47.25;99563.34;80747;1295;3070177;-63
2023/06/09 02:57:45;;;;;;;6.90;3.10;;;;;;;20.07;47.21;99561.10;82077;1295;3011385;-64
2023/06/09 03:00:14;;;;;;;9.10;2.90;;;;;;;20.12;46.98;99562.13;82003;1295;3011162;-63
2023/06/09 03:02:46;;;;;;;7.10;3.30;;;;;;;20.17;47.55;99565.60;80748;1295;3053101;-64
2023/06/09 03:05:13;;;;;;;8.50;3.50;;;;;;;20.24;47.00;99565.06;81969;1300;3011175;-64
2023/06/09 03:07:42;;;;;;;7.40;2.30;;;;;;;20.30;47.25;99561.45;80739;1295;3026265;-64
2023/06/09 03:10:09;;;;;;;6.70;2.60;;;;;;;20.47;46.53;99567.94;82070;1295;3018968;-64
2023/06/09 03:12:41;;;;;;;6.80;2.40;;;;;;;20.60;46.59;99570.77;81441;1296;3011390;-65
2023/06/09 03:15:08;;;;;;;6.70;2.60;;;;;;;20.67;46.07;99572.88;82031;1294;3018138;-64
2023/06/09 03:17:36;;;;;;;5.40;3.60;;;;;;;20.70;46.03;99569.98;82001;1295;3011188;-63
2023/06/09 03:20:06;;;;;;;6.10;2.30;;;;;;;20.70;46.13;99575.47;80775;1295;3052596;-64
2023/06/09 03:22:33;;;;;;;8.20;2.70;;;;;;;20.72;45.41;99573.48;82046;1295;3011284;-63
2023/06/09 03:25:01;;;;;;;5.10;2.90;;;;;;;20.75;45.45;99573.86;82064;1295;3011370;-64
2023/06/09 03:27:29;;;;;;;4.60;2.50;;;;;;;20.75;45.58;99575.13;80738;1295;3068682;-64
2023/06/09 03:29:56;;;;;;;4.40;2.50;;;;;;;20.74;45.99;99578.84;81996;1295;3012575;-63
2023/06/09 03:32:22;;;;;;;6.50;2.50;;;;;;;20.73;45.91;99579.42;82064;1294;3011351;-65
2023/06/09 03:34:50;;;;;;;4.10;2.30;;;;;;;20.77;45.74;99581.88;80694;1293;3026881;-65
2023/06/09 03:37:18;;;;;;;6.30;2.00;;;;;;;20.79;45.89;99577.49;82014;1295;3011154;-64
2023/06/09 03:39:44;;;;;;;6.90;2.60;;;;;;;20.82;45.46;99574.75;82074;1298;3011244;-63
2023/06/09 03:42:13;;;;;;;6.40;2.60;;;;;;;20.88;45.46;99575.95;80724;1295;3067514;-64
2023/06/09 03:44:40;;;;;;;6.60;2.60;;;;;;;20.94;45.15;99571.95;82011;1298;3012799;-63
2023/06/09 03:47:09;;;;;;;6.40;3.00;;;;;;;21.00;45.05;99578.66;82059;1295;3011443;-65
2023/06/09 03:49:37;;;;;;;5.00;2.10;;;;;;;21.06;45.21;99578.89;80763;1295;3051650;-64
2023/06/09 03:52:06;;;;;;;5.60;2.50;;;;;;;21.16;45.23;99576.52;82005;1295;3018692;-63
2023/06/09 03:54:34;;;;;;;3.00;1.80;;;;;;;21.22;45.28;99579.55;82012;1298;3011104;-64
2023/06/09 03:57:02;;;;;;;5.80;2.80;;;;;;;21.29;45.15;99576.17;80720;1300;3069421;-64
2023/06/09 03:59:29;;;;;;;6.00;2.60;;;;;;;21.40;45.24;99579.36;82008;1298;3013192;-63
2023/06/09 04:01:56;;;;;;;4.90;2.30;;;;;;;21.46;45.15;99578.90;81993;1295;3011586;-63
2023/06/09 04:04:24;;;;;;;3.50;2.40;;;;;;;21.52;45.06;99581.50;80736;1295;3051357;-64
2023/06/09 04:06:51;;;;;;;6.00;2.80;;;;;;;21.58;45.16;99574.42;82008;1300;3018083;-63
2023/06/09 04:09:20;;;;;;;5.50;2.30;;;;;;;21.63;45.06;99574.98;81989;1298;3011080;-63
2023/06/09 04:11:48;;;;;;;8.80;2.50;;;;;;;21.66;44.96;99569.50;80708;1296;3067209;-63
2023/06/09 04:14:15;;;;;;;8.10;2.70;;;;;;;21.72;44.74;99574.04;82067;1295;3018826;-64
2023/06/09 04:16:43;;;;;;;8.00;3.00;;;;;;;21.78;45.33;99576.29;82015;1295;3011294;-63
2023/06/09 04:19:11;;;;;;;9.40;2.70;;;;;;;21.81;44.86;99581.52;80739;1296;3052308;-65
2023/06/09 04:21:42;;;;;;;6.90;2.60;;;;;;;21.85;44.79;99579.61;82026;1295;3011400;-64
2023/06/09 04:24:10;;;;;;;5.10;2.50;;;;;;;21.93;44.53;99585.05;80697;1300;3026628;-64
2023/06/09 04:26:39;;;;;;;11.60;3.50;;;;;;;21.96;44.58;99586.09;82001;1300;3012754;-64
2023/06/09 04:29:09;;;;;;;10.90;4.00;;;;;;;21.98;45.15;99585.63;82010;1295;3011338;-64
2023/06/09 04:31:38;;;;;;;8.70;3.30;;;;;;;21.95;44.90;99586.70;80725;1295;3056657;-64
2023/06/09 04:34:10;;;;;;;17.80;3.80;;;;;;;21.97;44.87;99585.70;82051;1295;3011206;-65
2023/06/09 04:36:41;;;;;;;8.20;3.10;;;;;;;21.98;44.64;99587.30;80725;1295;3048792;-64
2023/06/09 04:39:09;;;;;;;10.60;3.50;;;;;;;21.98;44.95;99588.36;82012;1294;3011271;-64
2023/06/09 04:41:37;;;;;;;12.70;3.80;;;;;;;22.00;44.99;99583.23;80696;1301;3052294;-64
2023/06/09 04:44:05;;;;;;;10.10;3.00;;;;;;;22.02;45.06;99583.39;82069;1298;3012347;-64
2023/06/09 04:46:37;;;;;;;11.40;3.50;;;;;;;22.07;44.86;99582.83;80789;1295;3057109;-64
2023/06/09 04:49:10;;;;;;;11.10;3.90;;;;;;;22.11;44.26;99583.06;82001;1296;3011648;-65
2023/06/09 04:51:46;;;;;;;;;;;;;;;22.11;43.99;99584.52;80750;1295;3052450;-63
2023/06/09 04:54:20;;;;;;;17.30;3.80;;;;;;;22.12;44.11;99581.91;80706;1295;3050484;-66
2023/06/09 04:56:52;;;;;;;12.70;2.80;;;;;;;22.15;44.04;99574.32;81922;1299;3011640;-63
2023/06/09 04:59:21;;;;;;;14.20;2.70;;;;;;;22.16;44.16;99575.33;80800;1298;3054263;-63
2023/06/09 05:01:47;;;;;;;8.90;3.20;;;;;;;22.16;44.86;99576.87;82080;1295;3018737;-62
2023/06/09 05:04:14;;;;;;;13.00;3.40;;;;;;;22.20;44.53;99581.98;81966;1295;3011613;-63
2023/06/09 05:06:43;;;;;;;9.60;2.60;;;;;;;22.23;44.36;99577.30;80723;1295;3048493;-64
2023/06/09 05:09:09;;;;;;;11.50;2.90;;;;;;;22.27;44.28;99579.77;81969;1295;3018507;-63
2023/06/09 05:11:36;;;;;;;10.40;3.20;;;;;;;22.38;44.50;99586.34;82008;1295;3011342;-63
2023/06/09 05:14:05;;;;;;;13.10;3.10;;;;;;;22.43;44.56;99584.80;80689;1301;3025676;-62
2023/06/09 05:16:33;;;;;;;8.30;3.20;;;;;;;22.47;44.66;99587.36;81971;1296;3011356;-62
2023/06/09 05:19:00;;;;;;;13.90;2.80;;;;;;;22.52;44.49;99584.59;82015;1296;3012585;-63
2023/06/09 05:21:29;;;;;;;16.90;3.10;;;;;;;22.54;44.53;99580.98;80693;1295;3056558;-63
2023/06/09 05:23:56;;;;;;;9.40;2.40;;;;;;;22.55;44.62;99580.80;81991;1296;3012632;-62
2023/06/09 05:26:22;;;;;;;16.80;2.90;;;;;;;22.60;44.79;99573.22;82041;1295;3011430;-63
2023/06/09 05:28:50;;;;;;;10.20;2.70;;;;;;;22.67;44.89;99576.75;80724;1300;3026296;-63
2023/06/09 05:31:17;;;;;;;15.30;3.00;;;;;;;22.69;44.91;99578.13;82026;1296;3012938;-63
2023/06/09 05:33:44;;;;;;;8.00;3.20;;;;;;;22.78;44.46;99576.75;82029;1299;3011384;-64
2023/06/09 05:36:12;;;;;;;10.90;2.70;;;;;;;22.86;44.38;99570.38;80775;1295;3025649;-64
2023/06/09 05:38:43;;;;;;;12.30;3.00;;;;;;;22.89;43.96;99571.81;82012;1295;3011325;-63
2023/06/09 05:41:11;;;;;;;6.20;2.20;;;;;;;22.93;44.05;99566.71;80768;1294;3027783;-63
2023/06/09 05:43:37;;;;;;;10.40;3.20;;;;;;;23.00;43.42;99563.30;82092;1298;3012636;-63
2023/06/09 05:46:04;;;;;;;12.10;2.70;;;;;;;23.07;43.45;99562.98;82018;1298;3011457;-63
2023/06/09 05:48:32;;;;;;;7.00;2.60;;;;;;;23.12;43.27;99561.44;80744;1295;3026708;-64
2023/06/09 05:50:58;;;;;;;10.00;2.60;;;;;;;23.18;42.82;99556.73;82103;1295;3013520;-63
2023/06/09 05:53:25;;;;;;;8.50;2.40;;;;;;;23.25;42.28;99553.77;82037;1295;3011338;-63
2023/06/09 05:55:54;;;;;;;7.80;2.30;;;;;;;23.32;42.95;99550.52;80759;1296;3028056;-65
2023/06/09 05:58:20;;;;;;;7.80;2.50;;;;;;;23.37;43.08;99550.98;82038;1295;3012691;-63
2023/06/09 06:00:47;;;;;;;7.40;2.60;;;;;;;23.39;42.45;99550.08;82083;1295;3011405;-66
2023/06/09 06:03:15;;;;;;;10.50;2.30;;;;;;;23.44;42.30;99553.36;80813;1295;3067494;-63
2023/06/09 06:05:43;;;;;;;6.40;2.30;;;;;;;23.50;42.35;99544.70;82050;1299;3012656;-64
2023/06/09 06:08:10;;;;;;;10.90;2.50;;;;;;;23.62;41.97;99547.41;81998;1294;3011663;-64
2023/06/09 06:10:38;;;;;;;7.10;2.50;;;;;;;23.70;42.26;99547.77;80781;1298;3051812;-63
2023/06/09 06:13:05;;;;;;;7.80;2.80;;;;;;;23.73;42.48;99547.83;82085;1297;3012987;-63
2023/06/09 06:15:31;;;;;;;5.40;2.60;;;;;;;23.78;42.73;99547.19;82055;1295;3011433;-64
2023/06/09 06:17:59;;;;;;;10.20;2.80;;;;;;;23.84;42.63;99547.63;80810;1295;3025841;-64
2023/06/09 06:20:26;;;;;;;7.00;2.10;;;;;;;23.87;42.32;99547.24;82078;1295;3013708;-63
2023/06/09 06:22:53;;;;;;;8.00;2.40;;;;;;;24.00;42.23;99545.41;82069;1295;3011293;-63
2023/06/09 06:25:21;;;;;;;5.10;2.50;;;;;;;24.11;41.61;99547.53;80777;1295;3026744;-64
2023/06/09 06:27:47;;;;;;;8.30;2.50;;;;;;;24.16;41.19;99544.19;82061;1295;3012390;-63
2023/06/09 06:30:14;;;;;;;7.40;2.70;;;;;;;24.21;41.07;99547.42;82046;1298;3011145;-63
2023/06/09 06:32:52;;;;;;;5.30;2.50;;;;;;;24.27;41.48;99539.77;80767;1294;3026415;-65
2023/06/09 06:35:27;;;;;;;3.10;2.00;;;;;;;24.32;41.83;99537.44;80771;1295;3051475;-62
2023/06/09 06:37:56;;;;;;;5.50;2.60;;;;;;;24.38;40.75;99541.19;81508;1295;3011430;-62
2023/06/09 06:40:23;;;;;;;9.80;2.50;;;;;;;24.44;40.68;99535.26;82059;1295;3018950;-63
2023/06/09 06:42:51;;;;;;;4.80;2.60;;;;;;;24.48;38.59;99530.52;82057;1295;3011552;-62
2023/06/09 06:45:25;;;;;;;4.70;2.40;;;;;;;24.52;37.99;99525.88;80713;1295;3050148;-65
2023/06/09 06:47:53;;;;;;;6.10;1.90;;;;;;;24.58;37.57;99522.41;82040;1295;3012711;-63
2023/06/09 06:50:22;;;;;;;3.70;1.70;;;;;;;24.60;36.86;99522.48;81530;1294;3011360;-63
2023/06/09 06:52:48;;;;;;;5.40;1.70;;;;;;;24.64;36.78;99522.07;82046;1295;3013195;-63
2023/06/09 06:55:15;;;;;;;4.40;2.20;;;;;;;24.73;36.30;99518.13;82024;1296;3011489;-62
2023/06/09 06:57:43;;;;;;;4.10;1.90;;;;;;;24.80;36.37;99516.50;80742;1295;3025806;-63
2023/06/09 07:00:14;;;;;;;4.50;1.70;;;;;;;24.90;36.21;99509.82;82010;1295;3018045;-64
2023/06/09 07:06:40;;;;;;;8.40;1.60;;;;;;;25.01;35.20;99503.96;81300;1292;3013253;-64
2023/06/09 07:09:07;;;;;;;3.50;1.90;;;;;;;25.06;34.82;99505.52;79967;1296;3013217;-64
2023/06/09 07:11:36;;;;;;;3.30;1.80;;;;;;;25.09;34.87;99507.67;79860;1298;3013116;-66
2023/06/09 07:14:04;;;;;;;5.90;2.00;;;;;;;25.18;34.91;99508.23;78589;1298;3053621;-65
2023/06/09 07:16:31;;;;;;;7.40;2.00;;;;;;;25.23;34.51;99504.61;80140;1298;3020614;-66
2023/06/09 07:18:58;;;;;;;2.90;2.30;;;;;;;25.25;34.64;99506.54;77709;1292;3040148;-65
2023/06/09 07:21:31;;;;;;;3.00;1.80;;;;;;;25.34;34.52;99506.64;79544;1292;3011611;-64
2023/06/09 07:23:58;;;;;;;6.80;2.00;;;;;;;25.41;34.60;99501.48;80021;1292;3011659;-65
2023/06/09 07:26:26;;;;;;;9.20;1.50;;;;;;;25.50;34.57;99503.69;78750;1292;3029227;-66
2023/06/09 07:28:53;;;;;;;6.00;1.80;;;;;;;25.54;34.05;99504.59;80380;1292;3013236;-64
2023/06/09 07:31:20;;;;;;;2.70;1.70;;;;;;;25.58;34.29;99507.13;80156;1292;3011424;-65
2023/06/09 07:33:48;;;;;;;7.90;2.00;;;;;;;25.64;34.36;99509.97;79068;1292;3027507;-64
2023/06/09 07:36:15;;;;;;;9.30;1.90;;;;;;;25.71;34.25;99506.39;80179;1292;3013475;-66
2023/06/09 07:38:43;;;;;;;5.60;1.60;;;;;;;25.67;33.00;99512.52;79922;1292;3011934;-65
2023/06/09 07:41:11;;;;;;;4.70;1.40;;;;;;;25.76;32.26;99506.00;78579;1292;3050007;-63
2023/06/09 07:43:38;;;;;;;7.00;1.70;;;;;;;25.85;32.50;99509.89;79865;1297;3012929;-65
2023/06/09 07:46:05;;;;;;;4.40;1.90;;;;;;;25.93;32.72;99511.22;79915;1295;3011683;-63
2023/06/09 07:48:33;;;;;;;6.50;1.30;;;;;;;26.00;32.66;99503.20;78733;1292;3028218;-65
2023/06/09 07:51:02;;;;;;;3.30;1.60;;;;;;;26.09;32.50;99502.61;80157;1292;3013025;-66
2023/06/09 07:53:31;;;;;;;4.80;1.50;;;;;;;26.17;31.78;99501.98;79720;1293;3013882;-64
2023/06/09 07:55:59;;;;;;;4.40;1.60;;;;;;;26.18;31.14;99502.95;80079;1292;3013221;-65
2023/06/09 07:58:26;;;;;;;4.10;1.80;;;;;;;26.23;31.08;99507.52;79949;1292;3011658;-64
2023/06/09 08:00:54;;;;;;;5.00;2.00;;;;;;;26.25;31.23;99504.65;78618;1292;3052590;-64
2023/06/09 08:03:21;;;;;;;5.10;1.60;;;;;;;26.34;31.65;99504.23;79841;1295;3019296;-64
2023/06/09 08:05:48;;;;;;;3.40;1.30;;;;;;;26.47;31.17;99504.84;79823;1295;3011470;-65
2023/06/09 08:08:16;;;;;;;2.50;1.40;;;;;;;26.53;31.09;99502.20;78730;1292;3025846;-64
2023/06/09 08:10:44;;;;;;;4.60;1.70;;;;;;;26.60;31.23;99501.15;80010;1293;3013771;-63
2023/06/09 08:13:14;;;;;;;6.40;2.00;;;;;;;26.63;30.71;99502.08;79963;1297;3011839;-66
2023/06/09 08:15:44;;;;;;;7.10;1.60;;;;;;;26.69;30.87;99501.42;79046;1292;3051900;-65
2023/06/09 08:18:10;;;;;;;5.20;2.00;;;;;;;26.76;30.19;99499.70;80056;1292;3013101;-64
2023/06/09 08:20:39;;;;;;;6.40;2.40;;;;;;;26.83;30.46;99501.53;80208;1292;3013009;-65
2023/06/09 08:23:10;;;;;;;3.90;1.90;;;;;;;26.86;30.81;99495.81;78920;1298;3050179;-66
2023/06/09 08:25:37;;;;;;;3.20;1.60;;;;;;;26.86;30.71;99494.17;79922;1298;3014169;-64
2023/06/09 08:28:05;;;;;;;4.80;1.60;;;;;;;26.93;31.20;99496.27;78599;1298;3026809;-65
2023/06/09 08:30:32;;;;;;;6.00;2.10;;;;;;;26.95;30.50;99501.98;79819;1298;3013514;-68
2023/06/09 08:32:59;;;;;;;2.80;1.70;;;;;;;27.01;30.06;99500.89;80257;1292;3011636;-65
2023/06/09 08:35:28;;;;;;;6.50;2.40;;;;;;;27.00;30.18;99501.00;78807;1292;3026351;-66
2023/06/09 08:37:55;;;;;;;3.00;1.60;;;;;;;27.11;30.43;99499.73;80217;1292;3013434;-66
2023/06/09 08:40:22;;;;;;;5.40;1.70;;;;;;;27.13;30.02;99493.42;80089;1292;3011838;-66
2023/06/09 08:42:50;;;;;;;5.00;1.60;;;;;;;27.21;30.13;99493.14;78787;1298;3049627;-66
2023/06/09 08:45:17;;;;;;;4.90;1.60;;;;;;;27.33;29.75;99490.41;79905;1301;3013140;-69
2023/06/09 08:47:49;;;;;;;2.40;1.80;;;;;;;27.35;30.10;99488.34;80226;1293;3011501;-66
2023/06/09 08:50:18;;;;;;;6.20;1.90;;;;;;;27.28;30.36;99484.03;78786;1294;3050129;-68
2023/06/09 08:52:45;;;;;;;10.70;1.80;;;;;;;27.26;30.66;99483.45;79981;1292;3013286;-67
2023/06/09 08:55:12;;;;;;;4.50;2.00;;;;;;;27.28;30.56;99486.02;80251;1293;3013523;-66
2023/06/09 08:57:40;;;;;;;5.10;1.90;;;;;;;27.44;30.40;99485.94;78994;1295;3051484;-67
2023/06/09 09:00:11;;;;;;;5.30;2.10;;;;;;;27.57;30.04;99486.93;79954;1292;3013850;-67
2023/06/09 09:02:40;;;;;;;4.40;1.80;;;;;;;27.81;29.81;99487.06;78649;1297;3068588;-66
2023/06/09 09:05:07;;;;;;;4.20;1.90;;;;;;;28.03;29.27;99493.63;80051;1292;3013264;-67
2023/06/09 15:04:15;;;;;;;6.20;2.10;;;;;;;34.70;20.55;99206.02;80276;1301;3013563;-60
2023/06/09 15:06:42;;;;;;;5.30;2.30;;;;;;;34.72;20.47;99201.08;79475;1301;3011663;-64
2023/06/09 15:09:10;;;;;;;3.30;1.80;;;;;;;34.70;20.55;99197.41;79310;1300;3011738;-61
2023/06/09 15:11:39;;;;;;;4.30;2.10;;;;;;;34.84;20.35;99199.69;78154;1304;3052759;-60
2023/06/09 15:14:05;;;;;;;2.70;1.90;;;;;;;34.79;20.19;99202.40;79129;1304;3013325;-61
2023/06/09 15:16:32;;;;;;;5.80;2.20;;;;;;;34.80;20.39;99201.54;77461;1301;3011526;-62
2023/06/09 15:19:00;;;;;;;5.30;2.20;;;;;;;34.85;20.35;99201.81;78464;1298;3028588;-63
2023/06/09 15:21:28;;;;;;;5.00;2.40;;;;;;;34.79;20.24;99197.61;79620;1295;3013635;-65
2023/06/09 15:23:54;;;;;;;9.10;2.20;;;;;;;34.79;20.44;99194.72;79579;1297;3011717;-63
2023/06/09 15:26:22;;;;;;;3.80;2.30;;;;;;;34.75;20.49;99197.51;78355;1300;3053339;-66
2023/06/09 15:28:49;;;;;;;4.70;1.80;;;;;;;34.87;20.30;99192.29;79487;1297;3019196;-71
2023/06/09 15:31:16;;;;;;;5.90;2.10;;;;;;;34.99;20.37;99192.92;79548;1300;3011804;-68
2023/06/09 15:33:43;;;;;;;6.50;2.10;;;;;;;35.03;20.20;99193.58;78301;1301;3027884;-67
2023/06/09 15:36:10;;;;;;;6.60;2.40;;;;;;;34.90;20.36;99192.92;79707;1298;3012975;-69
2023/06/09 15:38:37;;;;;;;5.30;2.40;;;;;;;34.94;20.43;99188.48;79542;1299;3011716;-65
2023/06/09 15:41:05;;;;;;;4.00;2.30;;;;;;;34.91;20.48;99185.89;78131;1301;3028719;-76
2023/06/09 15:43:36;;;;;;;4.10;1.90;;;;;;;34.92;20.21;99185.94;79751;1295;3013048;-67
2023/06/09 15:46:04;;;;;;;3.10;1.90;;;;;;;35.22;20.02;99185.52;78291;1295;3056158;-68
2023/06/09 15:48:33;;;;;;;6.40;2.20;;;;;;;35.19;20.21;99185.48;79406;1298;3013127;-71
2023/06/09 15:50:59;;;;;;;7.40;2.70;;;;;;;35.18;20.24;99184.83;79471;1298;3013183;-65
2023/06/09 15:53:27;;;;;;;8.00;2.10;;;;;;;35.24;19.85;99185.69;78210;1301;3054344;-69
2023/06/09 15:55:54;;;;;;;3.50;2.10;;;;;;;35.25;20.21;99184.73;79637;1297;3011677;-62
2023/06/09 15:58:22;;;;;;;6.50;1.70;;;;;;;35.36;19.85;99182.52;79273;1297;3011575;-65
2023/06/09 16:00:50;;;;;;;5.10;2.20;;;;;;;35.65;19.64;99183.71;78106;1298;3056659;-62
2023/06/09 16:03:16;;;;;;;6.00;1.90;;;;;;;35.64;19.89;99176.98;79550;1295;3018765;-60
2023/06/09 16:05:43;;;;;;;4.80;2.20;;;;;;;35.77;19.68;99177.61;79549;1295;3013400;-62
2023/06/09 16:08:12;;;;;;;8.20;2.20;;;;;;;35.71;19.77;99179.75;78234;1300;3028768;-62
2023/06/09 16:10:40;;;;;;;2.80;2.00;;;;;;;35.81;19.77;99178.89;79613;1300;3013636;-62
2023/06/09 16:13:10;;;;;;;3.60;2.10;;;;;;;35.68;19.89;99177.16;78910;1298;3013158;-63
2023/06/09 16:15:37;;;;;;;6.00;1.90;;;;;;;35.56;20.05;99179.67;79506;1297;3013423;-60
2023/06/09 16:18:05;;;;;;;6.40;2.40;;;;;;;35.61;20.16;99180.80;79445;1295;3011554;-62
2023/06/09 16:20:35;;;;;;;3.70;1.90;;;;;;;35.78;19.94;99173.79;78420;1298;3053201;-62
2023/06/09 16:23:01;;;;;;;3.10;2.10;;;;;;;35.77;20.23;99173.83;79614;1298;3013539;-62
2023/06/09 16:25:30;;;;;;;7.90;2.00;;;;;;;35.65;20.20;99170.77;79520;1301;3011581;-62
2023/06/09 16:27:58;;;;;;;2.50;1.90;;;;;;;35.55;20.38;99175.53;78260;1298;3068040;-63
2023/06/09 16:30:25;;;;;;;4.80;1.90;;;;;;;35.52;20.50;99174.58;79595;1295;3012856;-60
2023/06/09 16:32:51;;;;;;;3.60;1.90;;;;;;;35.38;20.66;99173.61;79486;1297;3012003;-62
2023/06/09 16:35:19;;;;;;;4.60;2.20;;;;;;;35.29;21.05;99173.34;78212;1301;3053058;-63
2023/06/09 16:37:46;;;;;;;3.40;2.10;;;;;;;35.15;21.18;99172.35;79465;1300;3012833;-63
2023/06/09 16:40:12;;;;;;;5.20;2.40;;;;;;;34.65;21.60;99167.91;79530;1300;3011947;-63
2023/06/09 16:42:40;;;;;;;4.30;2.40;;;;;;;34.36;22.11;99172.27;78281;1296;3028428;-63
2023/06/09 16:45:08;;;;;;;4.80;2.20;;;;;;;33.75;22.58;99170.12;79494;1298;3013121;-62
2023/06/09 16:47:35;;;;;;;5.90;2.40;;;;;;;33.11;23.33;99173.23;79392;1295;3013375;-62
2023/06/09 16:50:03;;;;;;;7.30;2.60;;;;;;;32.80;23.62;99169.52;78281;1296;3053174;-63
2023/06/09 16:52:30;;;;;;;4.30;2.20;;;;;;;32.42;24.13;99168.56;79447;1300;3011838;-62
2023/06/09 16:54:57;;;;;;;6.80;2.30;;;;;;;32.04;24.74;99172.39;79423;1301;3011998;-64
2023/06/09 16:57:24;;;;;;;5.30;3.00;;;;;;;31.71;25.10;99173.61;78256;1296;3068734;-63
2023/06/09 16:59:51;;;;;;;4.00;2.10;;;;;;;31.26;25.82;99174.34;79514;1298;3012918;-63
2023/06/09 17:02:20;;;;;;;5.90;2.50;;;;;;;31.07;26.01;99181.46;79487;1301;3011941;-63
2023/06/09 17:04:48;;;;;;;3.50;2.50;;;;;;;30.79;26.61;99180.44;78355;1301;3052429;-62
2023/06/09 17:07:14;;;;;;;4.70;2.40;;;;;;;30.44;26.98;99181.30;79622;1300;3013239;-64
2023/06/09 17:09:41;;;;;;;7.10;2.40;;;;;;;30.13;27.33;99178.76;79332;1300;3013057;-62
2023/06/09 17:12:10;;;;;;;8.90;2.50;;;;;;;29.87;27.87;99177.08;78165;1299;3027590;-64
2023/06/09 17:14:36;;;;;;;11.10;2.80;;;;;;;29.68;27.99;99179.93;79594;1298;3013016;-63
2023/06/09 17:17:04;;;;;;;7.00;2.70;;;;;;;29.53;28.17;99181.26;79480;1295;3011649;-64
2023/06/09 17:19:33;;;;;;;7.40;2.30;;;;;;;29.39;28.27;99181.77;78305;1295;3053147;-63
2023/06/09 17:22:00;;;;;;;3.30;2.20;;;;;;;29.27;28.35;99184.30;79428;1300;3014011;-63